Time;durP1;ratioP1;P1;durP2;ratioP2;P2;SDS_P1;SDS_P2;PMS_P1;PMS_P2;Temp;Humidity;BMP_temperature;BMP_pressure;BME280_temperature;BME280_humidity;BME280_pressure;Samples;Min_cycle;Max_cycle;Signal;HPM_P1;HPM_P2
2020/12/18 00:00:11;;;;;;;10.07;9.07;;;7.00;99.90;;;;;;5106882;28;20559;-83
2020/12/18 00:02:37;;;;;;;9.53;8.63;;;7.00;99.90;;;;;;5106558;28;20665;-83
2020/12/18 00:05:03;;;;;;;10.93;9.07;;;7.00;99.90;;;;;;5097792;28;20283;-85
2020/12/18 00:07:30;;;;;;;10.17;9.17;;;6.90;99.90;;;;;;5092990;28;20590;-83
2020/12/18 00:09:57;;;;;;;10.43;8.87;;;6.80;99.90;;;;;;5097830;28;20651;-80
2020/12/18 00:12:23;;;;;;;9.90;8.90;;;6.80;99.90;;;;;;5096796;28;20321;-77
2020/12/18 00:14:49;;;;;;;10.30;9.33;;;6.70;99.90;;;;;;5095094;28;20198;-78
2020/12/18 00:17:16;;;;;;;10.57;9.43;;;6.70;99.90;;;;;;5096068;28;20213;-78
2020/12/18 00:19:42;;;;;;;10.10;8.90;;;6.70;99.90;;;;;;5099205;28;20285;-77
2020/12/18 00:22:08;;;;;;;10.43;9.33;;;6.60;99.90;;;;;;5098109;28;20203;-77
2020/12/18 00:24:35;;;;;;;11.00;9.90;;;6.60;99.90;;;;;;5098239;28;20202;-77
2020/12/18 00:27:03;;;;;;;10.13;9.10;;;6.60;99.90;;;;;;5099021;28;20704;-78
2020/12/18 00:29:29;;;;;;;9.70;8.80;;;6.60;99.90;;;;;;5098203;28;20218;-77
2020/12/18 00:31:56;;;;;;;10.47;9.30;;;6.60;99.90;;;;;;5098072;28;20204;-79
2020/12/18 00:34:22;;;;;;;9.67;8.77;;;6.60;99.90;;;;;;5099169;28;20293;-79
2020/12/18 00:36:51;;;;;;;10.03;9.10;;;6.60;99.90;;;;;;5097716;28;20305;-81
2020/12/18 00:39:17;;;;;;;9.67;8.73;;;6.60;99.90;;;;;;5099120;28;20664;-79
2020/12/18 00:41:44;;;;;;;10.20;9.10;;;6.60;99.90;;;;;;5108282;28;20206;-80
2020/12/18 00:44:11;;;;;;;9.07;8.27;;;6.70;99.90;;;;;;5108847;28;20202;-78
2020/12/18 00:46:38;;;;;;;9.63;8.70;;;6.70;99.90;;;;;;5108835;28;20226;-79
2020/12/18 00:49:04;;;;;;;9.70;8.70;;;6.70;99.90;;;;;;5108603;28;20383;-78
2020/12/18 00:51:30;;;;;;;9.53;8.63;;;6.80;99.90;;;;;;5109005;28;20210;-78
2020/12/18 00:53:57;;;;;;;9.30;8.50;;;6.80;99.90;;;;;;5108507;28;20226;-78
2020/12/18 00:56:23;;;;;;;10.10;8.03;;;6.80;99.90;;;;;;5108529;28;20683;-76
2020/12/18 00:58:49;;;;;;;9.70;8.70;;;6.70;99.90;;;;;;5108206;28;20229;-77
2020/12/18 01:01:17;;;;;;;9.80;8.80;;;6.70;99.90;;;;;;5107918;28;20208;-78
2020/12/18 01:03:43;;;;;;;9.43;8.53;;;6.70;99.90;;;;;;5108151;28;20237;-77
2020/12/18 01:06:11;;;;;;;9.67;8.67;;;6.70;99.90;;;;;;5107844;28;20233;-79
2020/12/18 01:08:38;;;;;;;12.33;9.33;;;6.70;99.90;;;;;;5108132;28;20315;-79
2020/12/18 01:11:05;;;;;;;10.03;9.03;;;6.70;99.90;;;;;;5107601;28;20206;-79
2020/12/18 01:13:32;;;;;;;9.70;8.27;;;6.70;99.90;;;;;;5108133;28;20206;-79
2020/12/18 01:15:59;;;;;;;11.40;10.20;;;6.70;99.90;;;;;;5108227;28;20230;-79
2020/12/18 01:18:26;;;;;;;9.43;8.47;;;6.70;99.90;;;;;;5107753;28;20198;-79
2020/12/18 01:20:53;;;;;;;9.33;8.43;;;6.70;99.90;;;;;;5107917;28;20296;-79
2020/12/18 01:23:20;;;;;;;9.27;8.37;;;6.70;99.90;;;;;;5108048;28;20635;-79
2020/12/18 01:25:46;;;;;;;9.70;8.70;;;6.70;99.90;;;;;;5107726;28;20202;-79
2020/12/18 01:28:13;;;;;;;10.17;8.90;;;6.70;99.90;;;;;;5108212;28;20316;-80
2020/12/18 01:30:39;;;;;;;9.93;8.93;;;6.70;99.90;;;;;;5108227;28;20201;-81
2020/12/18 01:33:05;;;;;;;9.70;8.80;;;6.70;99.90;;;;;;5108214;28;20564;-80
2020/12/18 01:35:32;;;;;;;10.47;9.47;;;6.60;99.90;;;;;;5108084;28;20734;-80
2020/12/18 01:37:59;;;;;;;9.70;8.70;;;6.60;99.90;;;;;;5108272;28;20293;-80
2020/12/18 01:40:25;;;;;;;10.10;9.10;;;6.60;99.90;;;;;;5108489;28;20202;-80
2020/12/18 01:42:52;;;;;;;9.90;8.97;;;6.60;99.90;;;;;;5108484;28;20563;-80
2020/12/18 01:45:18;;;;;;;10.73;9.13;;;6.60;99.90;;;;;;5108071;28;20326;-80
2020/12/18 01:47:46;;;;;;;9.97;9.03;;;6.60;99.90;;;;;;5107975;28;20236;-80
2020/12/18 01:50:13;;;;;;;10.50;8.73;;;6.60;99.90;;;;;;5110369;28;20258;-79
2020/12/18 01:52:40;;;;;;;9.90;9.00;;;6.60;99.90;;;;;;5112098;28;20297;-80
2020/12/18 01:55:08;;;;;;;10.20;9.13;;;6.60;99.90;;;;;;5111501;28;20230;-80
2020/12/18 01:57:37;;;;;;;10.50;9.40;;;6.60;99.90;;;;;;5112086;28;20607;-80
2020/12/18 02:00:06;;;;;;;10.20;9.20;;;6.60;99.90;;;;;;5111914;28;20306;-80
2020/12/18 02:02:33;;;;;;;9.57;8.57;;;6.60;99.90;;;;;;5111818;28;20213;-78
2020/12/18 02:04:59;;;;;;;10.47;9.37;;;6.70;99.90;;;;;;5097247;28;20676;-77
2020/12/18 02:07:29;;;;;;;10.70;9.60;;;6.60;99.90;;;;;;5111490;27;20237;-77
2020/12/18 02:09:57;;;;;;;11.03;9.67;;;6.70;99.90;;;;;;5111519;28;20280;-77
2020/12/18 02:12:23;;;;;;;10.37;9.07;;;6.70;99.90;;;;;;5111555;28;20210;-79
2020/12/18 02:14:50;;;;;;;9.57;8.67;;;6.60;99.90;;;;;;5099941;28;20211;-77
2020/12/18 02:17:17;;;;;;;11.27;9.63;;;6.70;99.90;;;;;;5091234;28;20242;-77
2020/12/18 02:19:44;;;;;;;10.93;9.77;;;6.70;99.90;;;;;;5091099;28;20217;-77
2020/12/18 02:22:13;;;;;;;10.47;9.33;;;6.70;99.90;;;;;;5090838;28;20216;-77
2020/12/18 02:24:41;;;;;;;11.50;9.70;;;6.70;99.90;;;;;;5091100;28;20301;-79
2020/12/18 02:27:10;;;;;;;10.30;9.17;;;6.60;99.90;;;;;;5090821;28;20231;-80
2020/12/18 02:29:36;;;;;;;10.63;9.47;;;6.60;99.90;;;;;;5091126;28;20211;-80
2020/12/18 02:32:03;;;;;;;11.13;9.97;;;6.60;99.90;;;;;;5091216;28;20305;-79
2020/12/18 02:34:29;;;;;;;11.23;10.10;;;6.50;99.90;;;;;;5090811;28;20329;-80
2020/12/18 02:36:56;;;;;;;12.03;10.50;;;6.40;99.90;;;;;;5090771;28;20231;-78
2020/12/18 02:39:22;;;;;;;10.90;9.63;;;6.50;99.90;;;;;;5090656;28;20229;-77
2020/12/18 02:41:49;;;;;;;11.50;9.67;;;6.50;99.90;;;;;;5090407;28;20209;-78
2020/12/18 02:44:16;;;;;;;12.60;10.10;;;6.50;99.90;;;;;;5090755;28;20207;-78
2020/12/18 02:46:42;;;;;;;10.73;9.63;;;6.50;99.90;;;;;;5090607;28;20669;-77
2020/12/18 02:49:09;;;;;;;10.97;9.80;;;6.50;99.90;;;;;;5090648;28;20202;-78
2020/12/18 02:51:35;;;;;;;10.73;9.63;;;6.60;99.90;;;;;;5090731;28;20315;-78
2020/12/18 02:54:02;;;;;;;11.70;9.93;;;6.60;99.90;;;;;;5090496;28;20239;-78
2020/12/18 02:56:28;;;;;;;11.10;9.97;;;6.60;99.90;;;;;;5090277;28;20293;-78
2020/12/18 02:58:55;;;;;;;11.03;9.70;;;6.60;99.90;;;;;;5090064;28;20660;-78
2020/12/18 03:01:22;;;;;;;10.70;9.60;;;6.60;99.90;;;;;;5089707;28;20301;-77
2020/12/18 03:03:49;;;;;;;10.87;9.77;;;6.60;99.90;;;;;;5090588;28;20207;-77
2020/12/18 03:06:15;;;;;;;10.67;9.67;;;6.60;99.90;;;;;;5089966;28;20330;-77
2020/12/18 03:08:42;;;;;;;9.97;9.03;;;6.60;99.90;;;;;;5090311;28;20213;-77
2020/12/18 03:11:08;;;;;;;10.77;9.23;;;6.60;99.90;;;;;;5090083;28;20199;-77
2020/12/18 03:13:34;;;;;;;11.07;9.30;;;6.60;99.90;;;;;;5089774;28;20206;-77
2020/12/18 03:16:01;;;;;;;11.00;9.33;;;6.60;99.90;;;;;;5089926;28;20294;-76
2020/12/18 03:18:28;;;;;;;10.50;9.50;;;6.60;99.90;;;;;;5090077;28;20749;-77
2020/12/18 03:20:54;;;;;;;10.40;9.40;;;6.60;99.90;;;;;;5090071;28;20290;-76
2020/12/18 03:23:21;;;;;;;10.23;9.27;;;6.60;99.90;;;;;;5090039;28;20202;-77
2020/12/18 03:25:47;;;;;;;12.27;8.87;;;6.60;99.90;;;;;;5089952;28;20316;-77
2020/12/18 03:28:13;;;;;;;12.23;9.50;;;6.50;99.90;;;;;;5089345;28;20210;-77
2020/12/18 03:30:40;;;;;;;10.70;9.60;;;6.50;99.90;;;;;;5089841;28;20238;-78
2020/12/18 03:33:06;;;;;;;11.07;9.37;;;6.50;99.90;;;;;;5089664;28;20206;-77
2020/12/18 03:35:33;;;;;;;9.93;8.87;;;6.50;99.90;;;;;;5090011;28;20229;-77
2020/12/18 03:38:00;;;;;;;9.87;8.87;;;6.50;99.90;;;;;;5089749;28;20217;-77
2020/12/18 03:40:26;;;;;;;11.90;9.57;;;6.50;99.90;;;;;;5089749;28;20206;-77
2020/12/18 03:42:53;;;;;;;11.50;9.73;;;6.50;99.90;;;;;;5089986;28;20297;-77
2020/12/18 03:45:19;;;;;;;9.83;8.87;;;6.40;99.90;;;;;;5089658;28;20234;-77
2020/12/18 03:47:45;;;;;;;9.70;8.70;;;6.40;99.90;;;;;;5090061;28;20238;-77
2020/12/18 03:50:12;;;;;;;62.50;36.57;;;6.50;99.90;;;;;;5089318;28;20301;-77
2020/12/18 03:52:39;;;;;;;31.93;18.50;;;6.40;99.90;;;;;;5089635;28;20251;-79
2020/12/18 03:55:06;;;;;;;14.00;11.03;;;6.40;99.90;;;;;;5088959;28;20235;-79
2020/12/18 03:57:32;;;;;;;15.27;10.10;;;6.40;99.90;;;;;;5089075;28;20673;-79
2020/12/18 03:59:59;;;;;;;10.40;9.13;;;6.40;99.90;;;;;;5089109;28;20752;-79
2020/12/18 04:02:25;;;;;;;10.27;9.23;;;6.40;99.90;;;;;;5089039;28;20199;-79
2020/12/18 04:04:52;;;;;;;10.07;8.93;;;6.40;99.90;;;;;;5089322;28;20234;-79
2020/12/18 04:07:18;;;;;;;71.07;44.40;;;6.40;99.90;;;;;;5088949;28;20244;-78
2020/12/18 04:09:45;;;;;;;59.47;40.50;;;6.40;99.90;;;;;;5089164;28;20211;-78
2020/12/18 04:12:12;;;;;;;62.47;42.07;;;6.40;99.90;;;;;;5087913;28;20217;-79
2020/12/18 04:14:39;;;;;;;15.67;14.03;;;6.40;99.90;;;;;;5088170;28;20203;-79
2020/12/18 04:17:05;;;;;;;13.60;10.47;;;6.40;99.90;;;;;;5088847;28;20221;-78
2020/12/18 04:19:32;;;;;;;23.27;18.50;;;6.30;99.90;;;;;;5088731;28;20297;-78
2020/12/18 04:21:59;;;;;;;30.07;24.47;;;6.30;99.90;;;;;;5088439;28;20211;-78
2020/12/18 04:24:25;;;;;;;20.50;16.50;;;6.30;99.90;;;;;;5088430;28;20683;-78
2020/12/18 04:26:53;;;;;;;16.60;13.17;;;6.30;99.90;;;;;;5088770;28;20238;-79
2020/12/18 04:29:19;;;;;;;14.67;13.17;;;6.30;99.90;;;;;;5088479;28;20301;-77
2020/12/18 04:31:46;;;;;;;26.10;23.20;;;6.30;99.90;;;;;;5088655;28;20295;-78
2020/12/18 04:34:12;;;;;;;27.17;24.27;;;6.30;99.90;;;;;;5087806;28;20314;-78
2020/12/18 04:36:39;;;;;;;14.57;13.00;;;6.40;99.90;;;;;;5088383;28;20353;-77
2020/12/18 04:39:06;;;;;;;13.07;11.77;;;6.30;99.90;;;;;;5088068;28;20207;-77
2020/12/18 04:41:34;;;;;;;12.83;10.10;;;6.40;99.90;;;;;;5088069;28;20198;-77
2020/12/18 04:44:01;;;;;;;12.23;9.97;;;6.30;99.90;;;;;;5088548;28;20319;-77
2020/12/18 04:46:30;;;;;;;10.67;9.53;;;6.30;99.90;;;;;;5087892;28;20262;-77
2020/12/18 04:48:57;;;;;;;11.67;10.10;;;6.30;99.90;;;;;;5087908;28;20676;-77
2020/12/18 04:51:25;;;;;;;10.93;9.83;;;6.30;99.90;;;;;;5087853;28;20206;-77
2020/12/18 04:53:53;;;;;;;12.53;10.77;;;6.30;99.90;;;;;;5087861;28;20253;-78
2020/12/18 04:56:21;;;;;;;12.53;10.23;;;6.30;99.90;;;;;;5088200;28;20206;-77
2020/12/18 04:58:50;;;;;;;13.27;10.23;;;6.20;99.90;;;;;;5088299;28;20203;-77
2020/12/18 05:01:19;;;;;;;11.43;10.20;;;6.20;99.90;;;;;;5087914;28;20297;-77
2020/12/18 05:03:46;;;;;;;13.97;10.43;;;6.20;99.90;;;;;;5088162;28;20210;-77
2020/12/18 05:06:12;;;;;;;11.80;10.50;;;6.10;99.90;;;;;;5088056;28;20202;-77
2020/12/18 05:08:39;;;;;;;13.50;10.57;;;6.10;99.90;;;;;;5088369;28;20266;-77
2020/12/18 05:11:22;;;;;;;12.27;10.80;;;6.10;99.90;;;;;;5088079;28;20217;-76
2020/12/18 05:13:51;;;;;;;14.67;10.80;;;6.10;99.90;;;;;;5088419;28;20289;-77
2020/12/18 05:16:20;;;;;;;13.90;10.67;;;6.20;99.90;;;;;;5087593;28;20302;-77
2020/12/18 05:18:47;;;;;;;14.13;11.17;;;6.20;99.90;;;;;;5088350;28;20202;-76
2020/12/18 05:21:13;;;;;;;13.10;10.50;;;6.20;99.90;;;;;;5088121;28;20210;-76
2020/12/18 05:23:40;;;;;;;13.33;10.30;;;6.20;99.90;;;;;;5087839;28;20294;-77
2020/12/18 05:26:07;;;;;;;11.27;10.13;;;6.10;99.90;;;;;;5092311;28;20209;-76
2020/12/18 05:28:39;;;;;;;13.27;10.77;;;6.10;99.90;;;;;;5092086;28;20213;-76
2020/12/18 05:31:10;;;;;;;13.00;10.53;;;6.10;99.90;;;;;;5092072;28;20279;-77
2020/12/18 05:33:38;;;;;;;12.43;11.10;;;6.10;99.90;;;;;;5092070;28;20194;-76
2020/12/18 05:36:04;;;;;;;13.80;10.73;;;6.20;99.90;;;;;;5091667;28;20234;-76
2020/12/18 05:38:33;;;;;;;11.87;10.17;;;6.20;99.90;;;;;;5091590;28;20555;-77
2020/12/18 05:41:00;;;;;;;13.50;10.07;;;6.20;99.90;;;;;;5091790;28;20305;-77
2020/12/18 05:43:33;;;;;;;12.00;10.77;;;6.20;99.90;;;;;;5091728;28;20639;-78
2020/12/18 05:45:59;;;;;;;13.63;10.80;;;6.30;99.90;;;;;;5091894;28;20199;-77
2020/12/18 05:48:27;;;;;;;13.40;10.10;;;6.30;99.90;;;;;;5091539;28;20234;-77
2020/12/18 05:50:54;;;;;;;13.50;11.20;;;6.30;99.90;;;;;;5091532;28;20300;-79
2020/12/18 05:53:21;;;;;;;11.90;10.23;;;6.30;99.90;;;;;;5091112;28;20734;-79
2020/12/18 05:55:47;;;;;;;13.33;10.83;;;6.30;99.90;;;;;;5091109;28;20562;-78
2020/12/18 05:58:14;;;;;;;13.30;10.83;;;6.30;99.90;;;;;;5091116;28;20657;-77
2020/12/18 06:00:41;;;;;;;12.40;10.97;;;6.30;99.90;;;;;;5091591;28;20203;-78
2020/12/18 06:03:11;;;;;;;11.80;10.43;;;6.30;99.90;;;;;;5091669;28;20280;-78
2020/12/18 06:05:38;;;;;;;13.17;10.90;;;6.30;99.90;;;;;;5091290;28;20567;-77
2020/12/18 06:08:15;;;;;;;13.33;10.43;;;6.30;99.90;;;;;;5091220;28;20234;-78
2020/12/18 06:10:42;;;;;;;11.47;10.30;;;6.30;99.90;;;;;;5091157;28;20223;-77
2020/12/18 06:13:09;;;;;;;11.97;10.20;;;6.30;99.90;;;;;;5090887;28;20207;-78
2020/12/18 06:15:35;;;;;;;14.30;10.67;;;6.30;99.90;;;;;;5090856;28;20298;-78
2020/12/18 06:18:04;;;;;;;11.17;9.97;;;6.20;99.90;;;;;;5091177;28;20259;-78
2020/12/18 06:20:34;;;;;;;12.73;10.40;;;6.10;99.90;;;;;;5090927;28;20232;-78
2020/12/18 06:23:03;;;;;;;12.97;10.30;;;6.10;99.90;;;;;;5091052;28;20199;-78
2020/12/18 06:25:30;;;;;;;13.70;10.90;;;6.10;99.90;;;;;;5091004;28;20349;-79
2020/12/18 06:27:58;;;;;;;12.37;10.80;;;6.00;99.90;;;;;;5090928;28;20227;-79
2020/12/18 06:30:25;;;;;;;11.83;10.57;;;6.00;99.90;;;;;;5090985;28;20672;-79
2020/12/18 06:32:51;;;;;;;11.77;10.27;;;6.00;99.90;;;;;;5090908;28;20207;-78
2020/12/18 06:35:32;;;;;;;13.40;11.43;;;6.00;99.90;;;;;;5090346;28;20313;-78
2020/12/18 06:38:19;;;;;;;12.73;11.33;;;6.00;99.90;;;;;;5090409;28;20348;-78
2020/12/18 06:40:46;;;;;;;13.37;10.67;;;6.00;99.90;;;;;;5090497;28;20213;-77
2020/12/18 06:43:12;;;;;;;11.83;10.63;;;6.00;99.90;;;;;;5090836;28;20202;-78
2020/12/18 06:45:39;;;;;;;14.60;11.00;;;5.90;99.90;;;;;;5090926;28;20209;-78
2020/12/18 06:48:26;;;;;;;11.90;10.70;;;5.90;99.90;;;;;;5090786;28;20719;-79
2020/12/18 06:50:53;;;;;;;11.37;10.27;;;5.90;99.90;;;;;;5090783;28;20559;-80
2020/12/18 06:53:19;;;;;;;13.30;11.20;;;6.00;99.90;;;;;;5090634;28;20346;-80
2020/12/18 06:55:46;;;;;;;13.17;10.53;;;6.00;99.90;;;;;;5090349;28;20671;-80
2020/12/18 06:58:19;;;;;;;20.23;15.10;;;6.00;99.90;;;;;;5090694;28;20214;-80
2020/12/18 07:00:47;;;;;;;15.37;13.67;;;6.00;99.90;;;;;;5090281;28;20652;-79
2020/12/18 07:03:36;;;;;;;23.33;17.13;;;6.00;99.90;;;;;;5090526;28;20677;-79
2020/12/18 07:06:05;;;;;;;23.77;18.03;;;6.00;99.90;;;;;;5090599;28;20568;-80
2020/12/18 07:08:33;;;;;;;28.73;21.83;;;6.00;99.90;;;;;;5090049;28;20241;-80
2020/12/18 07:11:03;;;;;;;28.33;21.07;;;6.00;99.90;;;;;;5090353;28;20209;-78
2020/12/18 07:13:31;;;;;;;24.70;19.03;;;6.00;99.90;;;;;;5089916;28;20684;-77
2020/12/18 07:16:01;;;;;;;15.10;12.93;;;6.00;99.90;;;;;;5090183;28;20297;-78
2020/12/18 07:18:29;;;;;;;13.13;10.90;;;6.00;99.90;;;;;;5090101;28;20207;-78
2020/12/18 07:20:57;;;;;;;13.50;11.03;;;6.00;99.90;;;;;;5090113;28;20294;-78
2020/12/18 07:23:26;;;;;;;12.13;10.83;;;6.00;99.90;;;;;;5089562;28;20882;-78
2020/12/18 07:25:53;;;;;;;12.03;10.73;;;6.00;99.90;;;;;;5090066;28;20215;-78
2020/12/18 07:28:21;;;;;;;12.47;10.47;;;6.00;99.90;;;;;;5089594;28;20234;-79
2020/12/18 07:30:49;;;;;;;11.97;10.33;;;6.00;99.90;;;;;;5090094;28;20202;-79
2020/12/18 07:33:16;;;;;;;13.73;10.77;;;6.00;99.90;;;;;;5089902;28;20273;-79
2020/12/18 07:35:44;;;;;;;12.27;11.00;;;6.00;99.90;;;;;;5089905;28;20219;-79
2020/12/18 07:38:12;;;;;;;10.80;9.70;;;6.00;99.90;;;;;;5089402;28;20203;-77
2020/12/18 07:40:39;;;;;;;13.13;10.80;;;6.00;99.90;;;;;;5089699;28;20238;-77
2020/12/18 07:43:10;;;;;;;12.50;10.30;;;6.00;99.90;;;;;;5088769;28;20209;-77
2020/12/18 07:45:43;;;;;;;13.00;10.30;;;6.00;99.90;;;;;;5089117;28;20968;-76
2020/12/18 07:48:10;;;;;;;11.93;10.57;;;6.00;99.90;;;;;;5089369;28;20639;-76
2020/12/18 07:50:37;;;;;;;12.87;10.87;;;6.00;99.90;;;;;;5094533;28;20293;-78
2020/12/18 07:53:07;;;;;;;12.23;9.93;;;6.00;99.90;;;;;;5097337;28;20290;-79
2020/12/18 07:55:34;;;;;;;12.20;10.77;;;6.00;99.90;;;;;;5096981;28;20197;-80
2020/12/18 07:58:00;;;;;;;11.53;10.17;;;6.00;99.90;;;;;;5089254;28;20203;-80
2020/12/18 08:00:27;;;;;;;14.77;10.67;;;6.00;99.90;;;;;;5097058;28;20213;-79
2020/12/18 08:02:54;;;;;;;13.43;10.80;;;6.00;99.90;;;;;;5110080;28;20671;-80
2020/12/18 08:05:21;;;;;;;11.33;10.23;;;6.00;99.90;;;;;;5092811;28;20960;-80
2020/12/18 08:07:49;;;;;;;12.47;11.07;;;5.90;99.90;;;;;;5100234;28;21005;-80
2020/12/18 08:10:17;;;;;;;13.23;10.43;;;6.00;99.90;;;;;;5103592;28;20259;-77
2020/12/18 08:12:49;;;;;;;12.87;10.63;;;6.00;99.90;;;;;;5101072;28;20280;-77
2020/12/18 08:15:16;;;;;;;12.17;10.87;;;6.00;99.90;;;;;;5101025;28;20207;-80
2020/12/18 08:17:44;;;;;;;14.07;10.57;;;6.00;99.90;;;;;;5095358;28;20251;-78
2020/12/18 08:20:14;;;;;;;13.90;11.00;;;6.00;99.90;;;;;;5084999;28;20211;-78
2020/12/18 08:22:43;;;;;;;11.93;10.03;;;6.00;99.90;;;;;;5084877;28;20513;-78
2020/12/18 08:25:11;;;;;;;13.23;10.67;;;6.00;99.90;;;;;;5084969;28;20260;-78
2020/12/18 08:27:45;;;;;;;11.97;10.50;;;6.00;99.90;;;;;;5084387;28;20583;-79
2020/12/18 08:30:13;;;;;;;12.47;11.13;;;6.00;99.90;;;;;;5084526;28;20203;-79
2020/12/18 08:32:45;;;;;;;14.53;11.37;;;6.00;99.90;;;;;;5087282;28;20688;-79
2020/12/18 08:35:19;;;;;;;13.30;11.10;;;6.00;99.90;;;;;;5101572;28;20601;-78
2020/12/18 08:37:48;;;;;;;14.37;11.30;;;6.00;99.90;;;;;;5091295;28;20195;-78
2020/12/18 08:40:21;;;;;;;11.53;10.37;;;6.00;99.90;;;;;;5085186;28;20550;-78
2020/12/18 08:43:00;;;;;;;12.50;11.17;;;6.10;99.90;;;;;;5086470;28;20313;-77
2020/12/18 08:45:27;;;;;;;12.13;10.93;;;6.20;99.90;;;;;;5094991;28;20774;-78
2020/12/18 08:47:54;;;;;;;20.77;18.77;;;6.20;99.90;;;;;;5095004;28;20801;-78
2020/12/18 08:50:22;;;;;;;19.77;15.50;;;6.20;99.90;;;;;;5094025;28;20385;-78
2020/12/18 08:52:48;;;;;;;12.50;10.70;;;6.30;99.90;;;;;;5093115;28;20206;-81
2020/12/18 08:55:15;;;;;;;11.77;10.07;;;6.40;99.90;;;;;;5094965;28;20210;-79
2020/12/18 08:57:42;;;;;;;12.67;10.67;;;6.40;99.90;;;;;;5091889;28;20202;-79
2020/12/18 09:00:13;;;;;;;11.83;10.50;;;6.50;99.90;;;;;;5097226;28;20302;-78
2020/12/18 09:02:42;;;;;;;12.27;11.00;;;6.50;99.90;;;;;;5084184;28;20210;-79
2020/12/18 09:05:10;;;;;;;12.37;10.07;;;6.60;99.90;;;;;;5084311;28;20867;-79
2020/12/18 09:07:41;;;;;;;13.30;10.27;;;6.60;99.90;;;;;;5096022;28;21113;-79
2020/12/18 09:10:08;;;;;;;11.13;9.90;;;6.60;99.90;;;;;;5104403;28;20542;-78
2020/12/18 09:12:44;;;;;;;12.57;10.17;;;6.50;99.90;;;;;;5104397;28;20217;-81
2020/12/18 09:15:22;;;;;;;10.60;9.60;;;6.60;99.90;;;;;;5097528;28;20213;-76
2020/12/18 09:17:58;;;;;;;13.40;11.03;;;6.60;99.90;;;;;;5104860;28;20209;-80
2020/12/18 09:20:25;;;;;;;11.93;10.63;;;6.60;99.90;;;;;;5093911;28;20616;-79
2020/12/18 09:22:57;;;;;;;13.47;11.70;;;6.60;99.90;;;;;;5086525;28;20290;-79
2020/12/18 09:25:23;;;;;;;11.63;10.53;;;6.60;99.90;;;;;;5087300;28;20297;-80
2020/12/18 09:27:54;;;;;;;11.87;10.07;;;6.60;99.90;;;;;;5087830;28;20230;-79
2020/12/18 09:30:22;;;;;;;13.47;11.27;;;6.50;99.90;;;;;;5087381;28;20209;-79
2020/12/18 09:33:10;;;;;;;11.67;10.47;;;6.60;99.90;;;;;;5087417;28;21127;-79
2020/12/18 09:35:37;;;;;;;11.17;9.97;;;6.50;99.90;;;;;;5087401;28;20230;-79
2020/12/18 09:38:04;;;;;;;13.23;11.43;;;6.60;99.90;;;;;;5088101;28;20222;-79
2020/12/18 09:40:31;;;;;;;10.53;9.53;;;6.50;99.90;;;;;;5088042;28;20207;-79
2020/12/18 09:42:57;;;;;;;11.87;10.53;;;6.60;99.90;;;;;;5087805;28;20207;-78
2020/12/18 09:45:24;;;;;;;11.30;10.10;;;6.80;99.90;;;;;;5087859;28;20211;-79
2020/12/18 09:47:53;;;;;;;13.03;10.70;;;6.90;99.90;;;;;;5087898;28;20234;-79
2020/12/18 09:50:19;;;;;;;10.73;9.67;;;7.00;99.90;;;;;;5087812;28;20225;-79
2020/12/18 09:52:46;;;;;;;11.37;10.17;;;7.00;99.90;;;;;;5087319;28;20304;-77
2020/12/18 09:55:14;;;;;;;13.40;10.50;;;7.20;99.90;;;;;;5087941;28;20235;-79
2020/12/18 09:57:41;;;;;;;12.10;10.13;;;7.20;99.90;;;;;;5087840;28;20204;-79
2020/12/18 10:00:08;;;;;;;11.50;10.30;;;7.20;99.90;;;;;;5087671;28;20296;-79
2020/12/18 10:02:34;;;;;;;11.17;10.07;;;7.20;99.90;;;;;;5087576;28;20219;-79
2020/12/18 10:05:01;;;;;;;12.13;10.30;;;7.20;99.90;;;;;;5087279;28;20224;-79
2020/12/18 10:07:27;;;;;;;11.23;10.13;;;7.30;99.90;;;;;;5087393;28;20318;-79
2020/12/18 10:09:54;;;;;;;11.43;9.10;;;7.30;99.90;;;;;;5087443;28;20335;-79
2020/12/18 10:12:21;;;;;;;10.87;9.77;;;7.40;99.90;;;;;;5090125;28;20209;-79
2020/12/18 10:14:48;;;;;;;10.53;9.40;;;7.40;99.90;;;;;;5090918;28;20206;-79
2020/12/18 10:17:14;;;;;;;11.40;9.80;;;7.50;99.90;;;;;;5091281;28;20234;-78
2020/12/18 10:19:40;;;;;;;11.07;9.50;;;7.50;99.90;;;;;;5090615;28;20557;-79
2020/12/18 10:22:07;;;;;;;10.47;9.40;;;7.60;99.90;;;;;;5090626;28;20257;-79
2020/12/18 10:24:33;;;;;;;11.50;10.30;;;7.70;99.90;;;;;;5091074;28;20251;-78
2020/12/18 10:27:00;;;;;;;11.47;9.87;;;7.80;99.90;;;;;;5090982;28;20248;-79
2020/12/18 10:29:27;;;;;;;10.37;9.37;;;7.80;99.90;;;;;;5090803;28;20760;-79
2020/12/18 10:31:55;;;;;;;10.60;9.50;;;7.90;99.90;;;;;;5090677;28;20664;-78
2020/12/18 10:34:22;;;;;;;11.17;10.07;;;7.90;99.90;;;;;;5091003;28;20222;-79
2020/12/18 10:36:53;;;;;;;11.07;10.07;;;8.00;99.90;;;;;;5091128;28;20210;-78
2020/12/18 10:39:21;;;;;;;11.63;10.37;;;8.10;99.90;;;;;;5090475;28;20689;-79
2020/12/18 10:41:47;;;;;;;10.97;9.97;;;8.10;99.90;;;;;;5090727;28;20283;-79
2020/12/18 10:44:14;;;;;;;10.83;9.93;;;8.20;99.90;;;;;;5090742;28;20203;-79
2020/12/18 10:46:41;;;;;;;10.57;9.67;;;8.30;99.90;;;;;;5090663;28;20236;-79
2020/12/18 10:49:09;;;;;;;11.33;9.93;;;8.30;99.90;;;;;;5090743;28;20289;-78
2020/12/18 10:51:39;;;;;;;10.67;9.57;;;8.40;99.90;;;;;;5090357;28;20252;-78
2020/12/18 10:54:06;;;;;;;12.17;10.33;;;8.50;99.90;;;;;;5090529;28;20245;-78
2020/12/18 10:56:32;;;;;;;11.37;10.00;;;8.60;99.90;;;;;;5090369;28;20569;-78
2020/12/18 10:58:59;;;;;;;11.23;10.13;;;8.70;99.90;;;;;;5090549;28;20206;-78
2020/12/18 11:01:25;;;;;;;11.43;10.33;;;8.70;99.90;;;;;;5090273;28;20213;-78
2020/12/18 11:03:53;;;;;;;10.97;9.83;;;8.80;99.90;;;;;;5090651;28;20207;-78
2020/12/18 11:06:19;;;;;;;11.53;10.40;;;8.80;99.90;;;;;;5090265;28;20225;-79
2020/12/18 11:08:45;;;;;;;12.40;9.97;;;8.90;99.90;;;;;;5090082;28;20234;-78
2020/12/18 11:11:15;;;;;;;11.30;10.20;;;8.90;99.90;;;;;;5090400;28;20580;-77
2020/12/18 11:13:41;;;;;;;10.77;9.67;;;9.00;99.90;;;;;;5090123;28;20242;-78
2020/12/18 11:16:08;;;;;;;10.93;8.73;;;9.00;99.90;;;;;;5099053;28;20728;-78
2020/12/18 11:18:36;;;;;;;11.10;9.30;;;9.00;99.90;;;;;;5110697;28;20692;-77
2020/12/18 11:21:04;;;;;;;10.10;9.07;;;9.10;99.90;;;;;;5110699;28;20241;-79
2020/12/18 11:23:32;;;;;;;11.20;9.80;;;9.20;99.90;;;;;;5109673;28;20242;-78
2020/12/18 11:25:59;;;;;;;11.17;9.83;;;9.30;99.90;;;;;;5110308;28;20676;-78
2020/12/18 11:28:25;;;;;;;10.37;9.30;;;9.30;99.90;;;;;;5110459;28;20407;-79
2020/12/18 11:30:52;;;;;;;11.53;10.10;;;9.40;99.90;;;;;;5110515;28;20335;-79
2020/12/18 11:33:18;;;;;;;10.37;9.13;;;9.40;99.90;;;;;;5110242;28;20202;-79
2020/12/18 11:35:45;;;;;;;10.10;9.10;;;9.50;99.90;;;;;;5110261;28;20302;-79
2020/12/18 11:38:12;;;;;;;10.63;8.93;;;9.60;99.90;;;;;;5110231;28;20262;-79
2020/12/18 11:40:39;;;;;;;9.97;8.97;;;9.60;99.90;;;;;;5109637;28;20708;-78
2020/12/18 11:43:05;;;;;;;11.03;8.70;;;9.60;99.90;;;;;;5109467;28;20751;-79
2020/12/18 11:45:33;;;;;;;8.80;7.90;;;9.60;99.90;;;;;;5109830;28;20245;-79
2020/12/18 11:48:00;;;;;;;9.40;8.40;;;9.60;99.90;;;;;;5109843;28;20230;-79
2020/12/18 11:50:28;;;;;;;10.23;7.93;;;9.70;99.90;;;;;;5109242;28;20208;-79
2020/12/18 11:52:55;;;;;;;8.80;8.00;;;9.70;99.90;;;;;;5109688;28;20206;-79
2020/12/18 11:55:23;;;;;;;8.93;8.07;;;9.80;99.90;;;;;;5109971;28;20289;-79
2020/12/18 11:57:49;;;;;;;8.50;7.70;;;9.80;99.90;;;;;;5109553;28;20295;-79
2020/12/18 12:00:19;;;;;;;8.73;7.93;;;9.80;99.90;;;;;;5109775;28;20202;-79
2020/12/18 12:02:47;;;;;;;9.17;8.07;;;9.90;99.90;;;;;;5109560;27;20213;-80
2020/12/18 12:05:13;;;;;;;8.93;8.03;;;9.90;99.90;;;;;;5109870;28;20640;-79
2020/12/18 12:07:40;;;;;;;9.00;7.37;;;10.00;99.90;;;;;;5109308;28;20233;-79
2020/12/18 12:10:06;;;;;;;8.20;6.83;;;10.00;99.90;;;;;;5108988;28;20202;-79
2020/12/18 12:12:33;;;;;;;8.83;7.67;;;10.00;99.90;;;;;;5109265;28;20210;-79
2020/12/18 12:15:00;;;;;;;9.57;7.67;;;10.00;99.90;;;;;;5109067;28;20684;-80
2020/12/18 12:17:26;;;;;;;7.77;7.10;;;9.90;99.90;;;;;;5109605;28;20309;-79
2020/12/18 12:19:52;;;;;;;8.33;7.53;;;9.90;99.90;;;;;;5109346;28;20293;-78
2020/12/18 12:22:19;;;;;;;7.87;7.07;;;9.80;99.90;;;;;;5109307;28;20289;-79
2020/12/18 12:24:45;;;;;;;7.97;7.17;;;9.80;99.90;;;;;;5108980;28;20358;-79
2020/12/18 12:27:12;;;;;;;7.37;6.67;;;9.80;99.90;;;;;;5109484;28;20230;-79
2020/12/18 12:29:39;;;;;;;7.93;6.80;;;9.80;99.90;;;;;;5109094;28;20287;-79
2020/12/18 12:32:06;;;;;;;7.30;6.60;;;9.90;99.90;;;;;;5109241;28;20302;-79
2020/12/18 12:34:33;;;;;;;7.77;7.07;;;9.90;99.90;;;;;;5107926;28;20278;-79
2020/12/18 12:37:00;;;;;;;7.00;6.30;;;9.90;99.90;;;;;;5109032;28;20243;-79
2020/12/18 12:39:27;;;;;;;7.40;6.67;;;10.10;99.90;;;;;;5108967;28;20269;-79
2020/12/18 12:41:53;;;;;;;7.00;6.40;;;10.20;99.90;;;;;;5108634;28;20668;-79
2020/12/18 12:44:20;;;;;;;6.73;6.07;;;10.30;99.90;;;;;;5108547;28;20206;-79